Terminal Aerodrome Forecast
Issued by NWS

Home | Current Version | Previous Version | Text Only | Print | Product List | Glossary On
Versions: 1 2 3 4 5 6 7 8 9 10 11 12 13 14 15 16 17 18 19 20 21 22 23 24 25 26 27 28 29 30
000
FTUS45 KREV 182320
TAFCXP
TAF
KCXP 182320Z 1900/1924 20016G28KT P6SM -RA BKN035 OVC070
     FM191100 22014G23KT 4SM -SHSN BKN050 OVC200
     FM191500 20005KT P6SM VCSH FEW050 OVC100=

USA.gov is the U.S. government's official web portal to all federal, state and local government web resources and services.